Sunnyvale, Texas
Current Conditions -  °F | °C
As of 1:50 PM on Friday 28 Nov 2014 (Local Time) from KHQZ Reporting Station
Clear Clear  
Wind Chill: 68°   Ceiling: Unl
Heat Index: 68°   Visibility: 10mi
Dew Point: 48°   Wind: 18mph
Humidity: 49%   Direction: 190°S
Pressure: 30.1"   Gusts: 31mph
Location:  32.8°N, 96.56°W
Report Text: KHQZ 281950Z 19016G27KT 10SM CLR 20/09 A3010
Loading
Personal Weather Stations






























Interactive Weather Map New forecast layout! Learn more

10-Day Weather Forecast

Advertisements
Track Severe Weather on mobile